sensor_id;sensor_type;location;lat;lon;timestamp;temperature;humidity
2539;DHT22;1280;49.760;9.664;2023-02-28T00:01:32;1.30;67.30
2539;DHT22;1280;49.760;9.664;2023-02-28T00:04:02;1.40;67.30
2539;DHT22;1280;49.760;9.664;2023-02-28T00:06:30;1.30;67.50
2539;DHT22;1280;49.760;9.664;2023-02-28T00:08:58;1.30;67.50
2539;DHT22;1280;49.760;9.664;2023-02-28T00:11:26;1.30;67.40
2539;DHT22;1280;49.760;9.664;2023-02-28T00:13:54;1.30;67.60
2539;DHT22;1280;49.760;9.664;2023-02-28T00:16:22;1.20;67.60
2539;DHT22;1280;49.760;9.664;2023-02-28T00:18:51;1.20;67.60
2539;DHT22;1280;49.760;9.664;2023-02-28T00:21:20;1.20;67.60
2539;DHT22;1280;49.760;9.664;2023-02-28T00:23:48;1.20;67.70
2539;DHT22;1280;49.760;9.664;2023-02-28T00:26:17;1.20;67.80
2539;DHT22;1280;49.760;9.664;2023-02-28T00:28:48;1.20;67.80
2539;DHT22;1280;49.760;9.664;2023-02-28T00:31:16;1.20;67.80
2539;DHT22;1280;49.760;9.664;2023-02-28T00:33:44;1.20;67.90
2539;DHT22;1280;49.760;9.664;2023-02-28T00:36:14;1.10;68.10
2539;DHT22;1280;49.760;9.664;2023-02-28T00:38:43;1.10;68.20
2539;DHT22;1280;49.760;9.664;2023-02-28T00:41:11;1.10;68.00
2539;DHT22;1280;49.760;9.664;2023-02-28T00:43:40;1.10;68.40
2539;DHT22;1280;49.760;9.664;2023-02-28T00:46:10;1.10;68.10
2539;DHT22;1280;49.760;9.664;2023-02-28T00:48:38;1.10;68.50
2539;DHT22;1280;49.760;9.664;2023-02-28T00:51:06;1.00;68.50
2539;DHT22;1280;49.760;9.664;2023-02-28T00:53:34;1.00;68.60
2539;DHT22;1280;49.760;9.664;2023-02-28T00:56:03;1.10;68.50
2539;DHT22;1280;49.760;9.664;2023-02-28T00:58:32;1.10;68.40
2539;DHT22;1280;49.760;9.664;2023-02-28T01:01:00;1.10;68.50
2539;DHT22;1280;49.760;9.664;2023-02-28T01:03:28;1.10;68.40
2539;DHT22;1280;49.760;9.664;2023-02-28T01:05:56;1.10;68.60
2539;DHT22;1280;49.760;9.664;2023-02-28T01:08:24;1.10;68.50
2539;DHT22;1280;49.760;9.664;2023-02-28T01:10:53;1.10;68.70
2539;DHT22;1280;49.760;9.664;2023-02-28T01:13:23;1.10;68.60
2539;DHT22;1280;49.760;9.664;2023-02-28T01:15:53;1.10;68.90
2539;DHT22;1280;49.760;9.664;2023-02-28T01:18:22;1.10;68.80
2539;DHT22;1280;49.760;9.664;2023-02-28T01:20:51;1.10;68.70
2539;DHT22;1280;49.760;9.664;2023-02-28T01:23:21;1.10;68.90
2539;DHT22;1280;49.760;9.664;2023-02-28T01:25:50;1.10;68.80
2539;DHT22;1280;49.760;9.664;2023-02-28T01:28:18;1.10;68.80
2539;DHT22;1280;49.760;9.664;2023-02-28T01:30:50;1.10;68.70
2539;DHT22;1280;49.760;9.664;2023-02-28T01:33:18;1.10;68.80
2539;DHT22;1280;49.760;9.664;2023-02-28T01:35:46;1.10;68.80
2539;DHT22;1280;49.760;9.664;2023-02-28T01:38:14;1.10;68.90
2539;DHT22;1280;49.760;9.664;2023-02-28T01:40:49;1.10;68.90
2539;DHT22;1280;49.760;9.664;2023-02-28T01:43:21;1.10;68.90
2539;DHT22;1280;49.760;9.664;2023-02-28T01:45:51;1.00;68.90
2539;DHT22;1280;49.760;9.664;2023-02-28T01:48:22;1.10;68.90
2539;DHT22;1280;49.760;9.664;2023-02-28T01:50:53;1.10;68.90
2539;DHT22;1280;49.760;9.664;2023-02-28T01:53:29;1.00;68.90
2539;DHT22;1280;49.760;9.664;2023-02-28T01:55:58;1.00;69.00
2539;DHT22;1280;49.760;9.664;2023-02-28T01:58:27;1.00;68.90
2539;DHT22;1280;49.760;9.664;2023-02-28T02:00:58;1.00;69.00
2539;DHT22;1280;49.760;9.664;2023-02-28T02:03:26;1.00;69.00
2539;DHT22;1280;49.760;9.664;2023-02-28T02:05:54;1.00;68.90
2539;DHT22;1280;49.760;9.664;2023-02-28T02:08:24;1.00;68.90
2539;DHT22;1280;49.760;9.664;2023-02-28T02:10:55;1.00;69.00
2539;DHT22;1280;49.760;9.664;2023-02-28T02:13:35;1.00;69.10
2539;DHT22;1280;49.760;9.664;2023-02-28T02:16:17;1.10;69.20
2539;DHT22;1280;49.760;9.664;2023-02-28T02:18:59;1.10;69.20
2539;DHT22;1280;49.760;9.664;2023-02-28T02:22:12;1.20;69.10
2539;DHT22;1280;49.760;9.664;2023-02-28T02:25:03;1.20;68.90
2539;DHT22;1280;49.760;9.664;2023-02-28T02:27:48;1.10;68.90
2539;DHT22;1280;49.760;9.664;2023-02-28T02:30:43;1.10;68.80
2539;DHT22;1280;49.760;9.664;2023-02-28T02:33:48;1.00;68.80
2539;DHT22;1280;49.760;9.664;2023-02-28T02:36:23;0.90;68.90
2539;DHT22;1280;49.760;9.664;2023-02-28T02:38:58;0.80;68.90
2539;DHT22;1280;49.760;9.664;2023-02-28T02:41:36;0.70;69.20
2539;DHT22;1280;49.760;9.664;2023-02-28T02:44:12;0.70;69.00
2539;DHT22;1280;49.760;9.664;2023-02-28T02:46:45;0.70;69.20
2539;DHT22;1280;49.760;9.664;2023-02-28T02:49:19;0.70;69.00
2539;DHT22;1280;49.760;9.664;2023-02-28T02:51:49;0.70;69.00
2539;DHT22;1280;49.760;9.664;2023-02-28T02:54:22;0.60;69.40
2539;DHT22;1280;49.760;9.664;2023-02-28T02:56:58;0.70;69.40
2539;DHT22;1280;49.760;9.664;2023-02-28T02:59:29;0.70;69.40
2539;DHT22;1280;49.760;9.664;2023-02-28T03:02:01;0.60;69.50
2539;DHT22;1280;49.760;9.664;2023-02-28T03:04:34;0.60;69.40
2539;DHT22;1280;49.760;9.664;2023-02-28T03:07:05;0.60;69.50
2539;DHT22;1280;49.760;9.664;2023-02-28T03:09:35;0.60;69.50
2539;DHT22;1280;49.760;9.664;2023-02-28T03:12:09;0.60;69.60
2539;DHT22;1280;49.760;9.664;2023-02-28T03:14:52;0.70;69.50
2539;DHT22;1280;49.760;9.664;2023-02-28T03:17:47;0.60;69.70
2539;DHT22;1280;49.760;9.664;2023-02-28T03:20:27;0.60;69.60
2539;DHT22;1280;49.760;9.664;2023-02-28T03:23:07;0.60;69.60
2539;DHT22;1280;49.760;9.664;2023-02-28T03:25:48;0.60;69.70
2539;DHT22;1280;49.760;9.664;2023-02-28T03:28:27;0.50;69.70
2539;DHT22;1280;49.760;9.664;2023-02-28T03:31:02;0.50;69.70
2539;DHT22;1280;49.760;9.664;2023-02-28T03:33:34;0.50;69.70
2539;DHT22;1280;49.760;9.664;2023-02-28T03:36:06;0.50;69.80
2539;DHT22;1280;49.760;9.664;2023-02-28T03:38:40;0.50;69.80
2539;DHT22;1280;49.760;9.664;2023-02-28T03:41:14;0.50;69.80
2539;DHT22;1280;49.760;9.664;2023-02-28T03:43:50;0.50;69.80
2539;DHT22;1280;49.760;9.664;2023-02-28T03:46:23;0.50;69.80
2539;DHT22;1280;49.760;9.664;2023-02-28T03:48:55;0.50;69.80
2539;DHT22;1280;49.760;9.664;2023-02-28T03:51:26;0.50;69.80
2539;DHT22;1280;49.760;9.664;2023-02-28T03:53:58;0.50;69.90
2539;DHT22;1280;49.760;9.664;2023-02-28T03:56:32;0.50;69.80
2539;DHT22;1280;49.760;9.664;2023-02-28T03:59:05;0.50;70.00
2539;DHT22;1280;49.760;9.664;2023-02-28T04:01:36;0.60;70.00
2539;DHT22;1280;49.760;9.664;2023-02-28T04:04:07;0.60;70.00
2539;DHT22;1280;49.760;9.664;2023-02-28T04:06:36;0.60;69.90
2539;DHT22;1280;49.760;9.664;2023-02-28T04:09:07;0.60;69.80
2539;DHT22;1280;49.760;9.664;2023-02-28T04:11:37;0.60;69.80
2539;DHT22;1280;49.760;9.664;2023-02-28T04:14:06;0.60;69.80
2539;DHT22;1280;49.760;9.664;2023-02-28T04:16:39;0.60;69.80
2539;DHT22;1280;49.760;9.664;2023-02-28T04:19:09;0.50;69.80
2539;DHT22;1280;49.760;9.664;2023-02-28T04:21:39;0.50;69.80
2539;DHT22;1280;49.760;9.664;2023-02-28T04:24:10;0.50;69.80
2539;DHT22;1280;49.760;9.664;2023-02-28T04:26:42;0.50;69.80
2539;DHT22;1280;49.760;9.664;2023-02-28T04:29:13;0.40;69.90
2539;DHT22;1280;49.760;9.664;2023-02-28T04:31:41;0.40;70.00
2539;DHT22;1280;49.760;9.664;2023-02-28T04:34:09;0.40;70.00
2539;DHT22;1280;49.760;9.664;2023-02-28T04:36:37;0.40;69.90
2539;DHT22;1280;49.760;9.664;2023-02-28T04:39:05;0.30;70.00
2539;DHT22;1280;49.760;9.664;2023-02-28T04:41:34;0.30;70.20
2539;DHT22;1280;49.760;9.664;2023-02-28T04:44:02;0.30;70.10
2539;DHT22;1280;49.760;9.664;2023-02-28T04:46:31;0.30;70.10
2539;DHT22;1280;49.760;9.664;2023-02-28T04:49:00;0.30;70.20
2539;DHT22;1280;49.760;9.664;2023-02-28T04:51:29;0.30;70.20
2539;DHT22;1280;49.760;9.664;2023-02-28T04:53:57;0.30;70.10
2539;DHT22;1280;49.760;9.664;2023-02-28T04:56:25;0.30;70.30
2539;DHT22;1280;49.760;9.664;2023-02-28T04:58:55;0.30;70.20
2539;DHT22;1280;49.760;9.664;2023-02-28T05:01:25;0.30;70.20
2539;DHT22;1280;49.760;9.664;2023-02-28T05:03:56;0.30;70.20
2539;DHT22;1280;49.760;9.664;2023-02-28T05:06:26;0.30;70.20
2539;DHT22;1280;49.760;9.664;2023-02-28T05:08:55;0.30;70.20
2539;DHT22;1280;49.760;9.664;2023-02-28T05:11:26;0.30;70.30
2539;DHT22;1280;49.760;9.664;2023-02-28T05:13:57;0.30;70.40
2539;DHT22;1280;49.760;9.664;2023-02-28T05:16:25;0.30;70.30
2539;DHT22;1280;49.760;9.664;2023-02-28T05:18:53;0.30;70.40
2539;DHT22;1280;49.760;9.664;2023-02-28T05:21:25;0.30;70.30
2539;DHT22;1280;49.760;9.664;2023-02-28T05:23:55;0.40;70.30
2539;DHT22;1280;49.760;9.664;2023-02-28T05:26:24;0.40;70.30
2539;DHT22;1280;49.760;9.664;2023-02-28T05:28:52;0.40;70.20
2539;DHT22;1280;49.760;9.664;2023-02-28T05:31:21;0.30;70.20
2539;DHT22;1280;49.760;9.664;2023-02-28T05:33:49;0.30;70.30
2539;DHT22;1280;49.760;9.664;2023-02-28T05:36:18;0.40;70.20
2539;DHT22;1280;49.760;9.664;2023-02-28T05:38:47;0.30;70.30
2539;DHT22;1280;49.760;9.664;2023-02-28T05:41:16;0.30;70.20
2539;DHT22;1280;49.760;9.664;2023-02-28T05:43:46;0.30;70.20
2539;DHT22;1280;49.760;9.664;2023-02-28T05:46:14;0.30;70.30
2539;DHT22;1280;49.760;9.664;2023-02-28T05:48:47;0.30;70.30
2539;DHT22;1280;49.760;9.664;2023-02-28T05:51:16;0.20;70.50
2539;DHT22;1280;49.760;9.664;2023-02-28T05:53:44;0.20;70.60
2539;DHT22;1280;49.760;9.664;2023-02-28T05:56:13;0.20;70.50
2539;DHT22;1280;49.760;9.664;2023-02-28T05:58:41;0.20;70.60
2539;DHT22;1280;49.760;9.664;2023-02-28T06:01:25;0.20;70.60
2539;DHT22;1280;49.760;9.664;2023-02-28T06:04:00;0.20;70.70
2539;DHT22;1280;49.760;9.664;2023-02-28T06:06:29;0.20;70.60
2539;DHT22;1280;49.760;9.664;2023-02-28T06:08:57;0.20;70.60
2539;DHT22;1280;49.760;9.664;2023-02-28T06:11:32;0.20;70.60
2539;DHT22;1280;49.760;9.664;2023-02-28T06:14:00;0.20;70.70
2539;DHT22;1280;49.760;9.664;2023-02-28T06:16:35;0.20;70.70
2539;DHT22;1280;49.760;9.664;2023-02-28T06:19:05;0.20;70.70
2539;DHT22;1280;49.760;9.664;2023-02-28T06:21:33;0.20;70.70
2539;DHT22;1280;49.760;9.664;2023-02-28T06:24:02;0.20;70.70
2539;DHT22;1280;49.760;9.664;2023-02-28T06:26:32;0.10;70.80
2539;DHT22;1280;49.760;9.664;2023-02-28T06:29:03;0.20;70.70
2539;DHT22;1280;49.760;9.664;2023-02-28T06:31:31;0.20;70.70
2539;DHT22;1280;49.760;9.664;2023-02-28T06:34:01;0.20;70.70
2539;DHT22;1280;49.760;9.664;2023-02-28T06:36:31;0.20;70.70
2539;DHT22;1280;49.760;9.664;2023-02-28T06:38:59;0.30;70.50
2539;DHT22;1280;49.760;9.664;2023-02-28T06:41:26;0.30;70.30
2539;DHT22;1280;49.760;9.664;2023-02-28T06:43:58;0.30;70.30
2539;DHT22;1280;49.760;9.664;2023-02-28T06:46:26;0.30;70.40
2539;DHT22;1280;49.760;9.664;2023-02-28T06:48:54;0.20;70.50
2539;DHT22;1280;49.760;9.664;2023-02-28T06:51:22;0.20;70.50
2539;DHT22;1280;49.760;9.664;2023-02-28T06:53:52;0.20;70.50
2539;DHT22;1280;49.760;9.664;2023-02-28T06:56:20;0.30;70.40
2539;DHT22;1280;49.760;9.664;2023-02-28T06:58:55;0.30;70.40
2539;DHT22;1280;49.760;9.664;2023-02-28T07:01:23;0.40;70.30
2539;DHT22;1280;49.760;9.664;2023-02-28T07:03:51;0.40;70.20
2539;DHT22;1280;49.760;9.664;2023-02-28T07:06:20;0.40;70.20
2539;DHT22;1280;49.760;9.664;2023-02-28T07:08:49;0.40;70.20
2539;DHT22;1280;49.760;9.664;2023-02-28T07:11:21;0.40;70.20
2539;DHT22;1280;49.760;9.664;2023-02-28T07:13:50;0.40;70.10
2539;DHT22;1280;49.760;9.664;2023-02-28T07:16:18;0.50;70.10
2539;DHT22;1280;49.760;9.664;2023-02-28T07:18:46;0.40;70.00
2539;DHT22;1280;49.760;9.664;2023-02-28T07:21:14;0.40;70.10
2539;DHT22;1280;49.760;9.664;2023-02-28T07:23:43;0.50;70.20
2539;DHT22;1280;49.760;9.664;2023-02-28T07:26:12;0.50;70.00
2539;DHT22;1280;49.760;9.664;2023-02-28T07:28:43;0.50;70.10
2539;DHT22;1280;49.760;9.664;2023-02-28T07:31:12;0.50;70.10
2539;DHT22;1280;49.760;9.664;2023-02-28T07:33:41;0.60;70.00
2539;DHT22;1280;49.760;9.664;2023-02-28T07:36:11;0.50;69.90
2539;DHT22;1280;49.760;9.664;2023-02-28T07:38:42;0.50;70.00
2539;DHT22;1280;49.760;9.664;2023-02-28T07:41:14;0.60;70.10
2539;DHT22;1280;49.760;9.664;2023-02-28T07:43:44;0.60;70.00
2539;DHT22;1280;49.760;9.664;2023-02-28T07:46:14;0.60;70.00
2539;DHT22;1280;49.760;9.664;2023-02-28T07:48:43;0.70;70.00
2539;DHT22;1280;49.760;9.664;2023-02-28T07:51:12;0.70;69.90
2539;DHT22;1280;49.760;9.664;2023-02-28T07:53:40;0.70;69.90
2539;DHT22;1280;49.760;9.664;2023-02-28T07:56:07;0.70;69.90
2539;DHT22;1280;49.760;9.664;2023-02-28T07:58:37;0.70;69.70
2539;DHT22;1280;49.760;9.664;2023-02-28T08:01:18;0.70;69.90
2539;DHT22;1280;49.760;9.664;2023-02-28T08:03:47;0.80;69.90
2539;DHT22;1280;49.760;9.664;2023-02-28T08:06:18;0.80;69.70
2539;DHT22;1280;49.760;9.664;2023-02-28T08:08:52;0.80;70.10
2539;DHT22;1280;49.760;9.664;2023-02-28T08:11:20;0.90;69.80
2539;DHT22;1280;49.760;9.664;2023-02-28T08:13:48;1.00;69.80
2539;DHT22;1280;49.760;9.664;2023-02-28T08:16:16;1.00;69.80
2539;DHT22;1280;49.760;9.664;2023-02-28T08:18:51;1.10;69.70
2539;DHT22;1280;49.760;9.664;2023-02-28T08:21:23;1.10;69.60
2539;DHT22;1280;49.760;9.664;2023-02-28T08:23:51;1.10;69.60
2539;DHT22;1280;49.760;9.664;2023-02-28T08:26:19;1.10;69.70
2539;DHT22;1280;49.760;9.664;2023-02-28T08:28:48;1.10;69.70
2539;DHT22;1280;49.760;9.664;2023-02-28T08:31:17;1.20;69.80
2539;DHT22;1280;49.760;9.664;2023-02-28T08:33:48;1.20;69.60
2539;DHT22;1280;49.760;9.664;2023-02-28T08:36:24;1.20;69.40
2539;DHT22;1280;49.760;9.664;2023-02-28T08:39:00;1.30;69.50
2539;DHT22;1280;49.760;9.664;2023-02-28T08:41:28;1.30;69.50
2539;DHT22;1280;49.760;9.664;2023-02-28T08:43:56;1.40;69.30
2539;DHT22;1280;49.760;9.664;2023-02-28T08:46:24;1.50;69.20
2539;DHT22;1280;49.760;9.664;2023-02-28T08:48:53;1.50;69.20
2539;DHT22;1280;49.760;9.664;2023-02-28T08:51:23;1.50;69.30
2539;DHT22;1280;49.760;9.664;2023-02-28T08:53:55;1.60;69.10
2539;DHT22;1280;49.760;9.664;2023-02-28T08:56:23;1.60;69.10
2539;DHT22;1280;49.760;9.664;2023-02-28T08:58:51;1.70;69.00
2539;DHT22;1280;49.760;9.664;2023-02-28T09:01:23;1.70;69.00
2539;DHT22;1280;49.760;9.664;2023-02-28T09:03:55;1.80;69.00
2539;DHT22;1280;49.760;9.664;2023-02-28T09:06:26;1.90;68.90
2539;DHT22;1280;49.760;9.664;2023-02-28T09:08:57;1.90;68.60
2539;DHT22;1280;49.760;9.664;2023-02-28T09:11:28;2.00;68.80
2539;DHT22;1280;49.760;9.664;2023-02-28T09:13:57;2.00;68.40
2539;DHT22;1280;49.760;9.664;2023-02-28T09:16:26;2.10;68.30
2539;DHT22;1280;49.760;9.664;2023-02-28T09:18:54;2.20;68.30
2539;DHT22;1280;49.760;9.664;2023-02-28T09:21:22;2.20;68.00
2539;DHT22;1280;49.760;9.664;2023-02-28T09:23:52;2.30;68.10
2539;DHT22;1280;49.760;9.664;2023-02-28T09:26:23;2.30;68.20
2539;DHT22;1280;49.760;9.664;2023-02-28T09:28:52;2.40;68.00
2539;DHT22;1280;49.760;9.664;2023-02-28T09:31:21;2.50;67.90
2539;DHT22;1280;49.760;9.664;2023-02-28T09:33:51;2.50;67.70
2539;DHT22;1280;49.760;9.664;2023-02-28T09:36:20;2.60;67.30
2539;DHT22;1280;49.760;9.664;2023-02-28T09:39:01;2.60;67.00
2539;DHT22;1280;49.760;9.664;2023-02-28T09:41:36;2.60;67.00
2539;DHT22;1280;49.760;9.664;2023-02-28T09:44:09;2.70;67.00
2539;DHT22;1280;49.760;9.664;2023-02-28T09:46:43;2.70;67.00
2539;DHT22;1280;49.760;9.664;2023-02-28T09:49:15;2.70;66.90
2539;DHT22;1280;49.760;9.664;2023-02-28T09:51:49;2.80;66.40
2539;DHT22;1280;49.760;9.664;2023-02-28T09:54:21;2.80;66.20
2539;DHT22;1280;49.760;9.664;2023-02-28T09:56:51;2.80;66.20
2539;DHT22;1280;49.760;9.664;2023-02-28T09:59:31;2.80;66.30
2539;DHT22;1280;49.760;9.664;2023-02-28T10:02:08;2.80;66.30
2539;DHT22;1280;49.760;9.664;2023-02-28T10:04:44;2.90;66.10
2539;DHT22;1280;49.760;9.664;2023-02-28T10:07:27;2.90;65.90
2539;DHT22;1280;49.760;9.664;2023-02-28T10:10:04;2.90;65.50
2539;DHT22;1280;49.760;9.664;2023-02-28T10:12:38;3.00;65.80
2539;DHT22;1280;49.760;9.664;2023-02-28T10:15:14;3.00;65.60
2539;DHT22;1280;49.760;9.664;2023-02-28T10:17:47;3.10;65.60
2539;DHT22;1280;49.760;9.664;2023-02-28T10:20:35;3.10;65.50
2539;DHT22;1280;49.760;9.664;2023-02-28T10:23:11;3.10;65.20
2539;DHT22;1280;49.760;9.664;2023-02-28T10:25:45;3.10;65.20
2539;DHT22;1280;49.760;9.664;2023-02-28T10:28:16;3.20;65.10
2539;DHT22;1280;49.760;9.664;2023-02-28T10:30:47;3.20;65.00
2539;DHT22;1280;49.760;9.664;2023-02-28T10:33:28;3.20;64.70
2539;DHT22;1280;49.760;9.664;2023-02-28T10:35:56;3.20;64.90
2539;DHT22;1280;49.760;9.664;2023-02-28T10:38:26;3.20;64.90
2539;DHT22;1280;49.760;9.664;2023-02-28T10:41:06;3.20;64.70
2539;DHT22;1280;49.760;9.664;2023-02-28T10:43:35;3.20;64.80
2539;DHT22;1280;49.760;9.664;2023-02-28T10:46:09;3.30;64.80
2539;DHT22;1280;49.760;9.664;2023-02-28T10:48:45;3.30;64.20
2539;DHT22;1280;49.760;9.664;2023-02-28T10:51:18;3.30;64.30
2539;DHT22;1280;49.760;9.664;2023-02-28T10:53:48;3.30;64.30
2539;DHT22;1280;49.760;9.664;2023-02-28T10:56:28;3.30;64.20
2539;DHT22;1280;49.760;9.664;2023-02-28T10:58:59;3.30;64.20
2539;DHT22;1280;49.760;9.664;2023-02-28T11:01:37;3.40;64.40
2539;DHT22;1280;49.760;9.664;2023-02-28T11:04:17;3.40;64.20
2539;DHT22;1280;49.760;9.664;2023-02-28T11:06:46;3.60;63.70
2539;DHT22;1280;49.760;9.664;2023-02-28T11:09:20;3.60;63.70
2539;DHT22;1280;49.760;9.664;2023-02-28T11:11:51;3.60;63.80
2539;DHT22;1280;49.760;9.664;2023-02-28T11:14:22;3.80;63.70
2539;DHT22;1280;49.760;9.664;2023-02-28T11:16:52;3.80;63.50
2539;DHT22;1280;49.760;9.664;2023-02-28T11:19:23;3.80;63.50
2539;DHT22;1280;49.760;9.664;2023-02-28T11:21:55;3.90;63.50
2539;DHT22;1280;49.760;9.664;2023-02-28T11:24:27;3.90;63.30
2539;DHT22;1280;49.760;9.664;2023-02-28T11:26:57;3.90;63.30
2539;DHT22;1280;49.760;9.664;2023-02-28T11:29:27;4.00;63.00
2539;DHT22;1280;49.760;9.664;2023-02-28T11:32:13;3.90;63.10
2539;DHT22;1280;49.760;9.664;2023-02-28T11:34:45;3.90;62.90
2539;DHT22;1280;49.760;9.664;2023-02-28T11:37:15;3.90;62.90
2539;DHT22;1280;49.760;9.664;2023-02-28T11:39:44;3.80;62.90
2539;DHT22;1280;49.760;9.664;2023-02-28T11:42:36;3.90;63.00
2539;DHT22;1280;49.760;9.664;2023-02-28T11:45:18;3.80;62.70
2539;DHT22;1280;49.760;9.664;2023-02-28T11:47:50;3.80;62.90
2539;DHT22;1280;49.760;9.664;2023-02-28T11:50:46;3.80;62.80
2539;DHT22;1280;49.760;9.664;2023-02-28T11:53:22;3.80;62.90
2539;DHT22;1280;49.760;9.664;2023-02-28T11:56:01;3.80;62.40
2539;DHT22;1280;49.760;9.664;2023-02-28T11:58:41;3.80;62.80
2539;DHT22;1280;49.760;9.664;2023-02-28T12:01:31;3.80;62.40
2539;DHT22;1280;49.760;9.664;2023-02-28T12:04:22;3.90;62.70
2539;DHT22;1280;49.760;9.664;2023-02-28T12:06:57;3.90;62.30
2539;DHT22;1280;49.760;9.664;2023-02-28T12:09:44;3.90;62.40
2539;DHT22;1280;49.760;9.664;2023-02-28T12:12:23;3.90;62.40
2539;DHT22;1280;49.760;9.664;2023-02-28T12:15:22;3.90;62.20
2539;DHT22;1280;49.760;9.664;2023-02-28T12:18:01;3.90;62.60
2539;DHT22;1280;49.760;9.664;2023-02-28T12:20:38;3.90;62.70
2539;DHT22;1280;49.760;9.664;2023-02-28T12:23:25;3.90;62.70
2539;DHT22;1280;49.760;9.664;2023-02-28T12:26:09;4.00;62.40
2539;DHT22;1280;49.760;9.664;2023-02-28T12:28:44;4.00;62.40
2539;DHT22;1280;49.760;9.664;2023-02-28T12:31:19;4.10;62.20
2539;DHT22;1280;49.760;9.664;2023-02-28T12:33:52;4.10;62.20
2539;DHT22;1280;49.760;9.664;2023-02-28T12:36:21;4.10;62.10
2539;DHT22;1280;49.760;9.664;2023-02-28T12:38:54;4.10;62.10
2539;DHT22;1280;49.760;9.664;2023-02-28T12:41:34;4.10;62.10
2539;DHT22;1280;49.760;9.664;2023-02-28T12:44:09;4.10;62.20
2539;DHT22;1280;49.760;9.664;2023-02-28T12:46:43;4.10;62.20
2539;DHT22;1280;49.760;9.664;2023-02-28T12:49:15;4.20;62.00
2539;DHT22;1280;49.760;9.664;2023-02-28T12:51:44;4.20;61.80
2539;DHT22;1280;49.760;9.664;2023-02-28T12:54:21;4.20;61.70
2539;DHT22;1280;49.760;9.664;2023-02-28T12:56:56;4.30;61.80
2539;DHT22;1280;49.760;9.664;2023-02-28T12:59:31;4.20;61.80
2539;DHT22;1280;49.760;9.664;2023-02-28T13:02:39;4.20;61.70
2539;DHT22;1280;49.760;9.664;2023-02-28T13:06:02;4.30;61.60
2539;DHT22;1280;49.760;9.664;2023-02-28T13:08:59;4.30;61.50
2539;DHT22;1280;49.760;9.664;2023-02-28T13:11:32;4.20;61.10
2539;DHT22;1280;49.760;9.664;2023-02-28T13:14:03;4.30;61.50
2539;DHT22;1280;49.760;9.664;2023-02-28T13:16:55;4.40;61.00
2539;DHT22;1280;49.760;9.664;2023-02-28T13:19:29;4.40;60.50
2539;DHT22;1280;49.760;9.664;2023-02-28T13:21:59;4.30;60.90
2539;DHT22;1280;49.760;9.664;2023-02-28T13:24:42;4.40;60.80
2539;DHT22;1280;49.760;9.664;2023-02-28T13:27:22;4.40;61.00
2539;DHT22;1280;49.760;9.664;2023-02-28T13:29:52;4.50;61.00
2539;DHT22;1280;49.760;9.664;2023-02-28T13:32:42;4.50;61.00
2539;DHT22;1280;49.760;9.664;2023-02-28T13:35:42;4.50;61.00
2539;DHT22;1280;49.760;9.664;2023-02-28T13:44:03;4.50;60.60
2539;DHT22;1280;49.760;9.664;2023-02-28T13:46:34;4.50;60.70
2539;DHT22;1280;49.760;9.664;2023-02-28T13:49:18;4.60;60.60
2539;DHT22;1280;49.760;9.664;2023-02-28T13:51:49;4.70;60.50
2539;DHT22;1280;49.760;9.664;2023-02-28T13:54:39;4.60;60.50
2539;DHT22;1280;49.760;9.664;2023-02-28T13:57:21;4.70;60.70
2539;DHT22;1280;49.760;9.664;2023-02-28T14:00:07;4.70;60.70
2539;DHT22;1280;49.760;9.664;2023-02-28T14:02:56;4.80;60.50
2539;DHT22;1280;49.760;9.664;2023-02-28T14:05:29;4.80;60.50
2539;DHT22;1280;49.760;9.664;2023-02-28T14:08:05;4.80;60.60
2539;DHT22;1280;49.760;9.664;2023-02-28T14:10:37;4.90;60.50
2539;DHT22;1280;49.760;9.664;2023-02-28T14:13:37;4.90;60.30
2539;DHT22;1280;49.760;9.664;2023-02-28T14:16:13;4.90;60.30
2539;DHT22;1280;49.760;9.664;2023-02-28T14:18:49;4.90;60.00
2539;DHT22;1280;49.760;9.664;2023-02-28T14:21:22;5.00;60.20
2539;DHT22;1280;49.760;9.664;2023-02-28T14:27:05;5.00;60.20
2539;DHT22;1280;49.760;9.664;2023-02-28T14:30:03;5.00;60.00
2539;DHT22;1280;49.760;9.664;2023-02-28T14:32:43;5.00;60.00
2539;DHT22;1280;49.760;9.664;2023-02-28T14:35:20;5.10;60.00
2539;DHT22;1280;49.760;9.664;2023-02-28T14:37:49;5.00;59.80
2539;DHT22;1280;49.760;9.664;2023-02-28T14:40:22;5.10;59.80
2539;DHT22;1280;49.760;9.664;2023-02-28T14:42:56;5.10;59.90
2539;DHT22;1280;49.760;9.664;2023-02-28T14:45:24;5.10;59.80
2539;DHT22;1280;49.760;9.664;2023-02-28T14:47:54;5.10;59.90
2539;DHT22;1280;49.760;9.664;2023-02-28T14:50:27;5.00;60.10
2539;DHT22;1280;49.760;9.664;2023-02-28T14:52:55;5.10;60.00
2539;DHT22;1280;49.760;9.664;2023-02-28T14:55:28;5.10;60.00
2539;DHT22;1280;49.760;9.664;2023-02-28T14:57:57;5.10;60.10
2539;DHT22;1280;49.760;9.664;2023-02-28T15:00:28;5.10;60.10
2539;DHT22;1280;49.760;9.664;2023-02-28T15:02:57;5.20;59.90
2539;DHT22;1280;49.760;9.664;2023-02-28T15:05:28;5.10;59.90
2539;DHT22;1280;49.760;9.664;2023-02-28T15:08:05;5.10;59.90
2539;DHT22;1280;49.760;9.664;2023-02-28T15:10:35;5.10;60.00
2539;DHT22;1280;49.760;9.664;2023-02-28T15:13:06;5.10;60.00
2539;DHT22;1280;49.760;9.664;2023-02-28T15:15:48;5.10;59.90
2539;DHT22;1280;49.760;9.664;2023-02-28T15:18:41;5.10;59.80
2539;DHT22;1280;49.760;9.664;2023-02-28T15:21:12;5.20;60.00
2539;DHT22;1280;49.760;9.664;2023-02-28T15:23:48;5.10;60.00
2539;DHT22;1280;49.760;9.664;2023-02-28T15:26:21;5.20;60.00
2539;DHT22;1280;49.760;9.664;2023-02-28T15:28:52;5.20;60.00
2539;DHT22;1280;49.760;9.664;2023-02-28T15:31:27;5.20;60.00
2539;DHT22;1280;49.760;9.664;2023-02-28T15:34:06;5.20;59.90
2539;DHT22;1280;49.760;9.664;2023-02-28T15:36:42;5.20;60.00
2539;DHT22;1280;49.760;9.664;2023-02-28T15:39:19;5.20;59.90
2539;DHT22;1280;49.760;9.664;2023-02-28T15:41:48;5.20;59.90
2539;DHT22;1280;49.760;9.664;2023-02-28T15:44:24;5.20;60.00
2539;DHT22;1280;49.760;9.664;2023-02-28T15:46:57;5.20;60.10
2539;DHT22;1280;49.760;9.664;2023-02-28T15:49:26;5.20;60.00
2539;DHT22;1280;49.760;9.664;2023-02-28T15:51:58;5.20;60.00
2539;DHT22;1280;49.760;9.664;2023-02-28T15:54:29;5.20;60.10
2539;DHT22;1280;49.760;9.664;2023-02-28T15:57:06;5.20;60.10
2539;DHT22;1280;49.760;9.664;2023-02-28T15:59:36;5.20;60.10
2539;DHT22;1280;49.760;9.664;2023-02-28T16:02:14;5.20;59.90
2539;DHT22;1280;49.760;9.664;2023-02-28T16:05:02;5.20;59.90
2539;DHT22;1280;49.760;9.664;2023-02-28T16:07:30;5.20;59.90
2539;DHT22;1280;49.760;9.664;2023-02-28T16:09:58;5.10;59.90
2539;DHT22;1280;49.760;9.664;2023-02-28T16:12:29;5.10;59.90
2539;DHT22;1280;49.760;9.664;2023-02-28T16:15:00;5.10;59.90
2539;DHT22;1280;49.760;9.664;2023-02-28T16:17:33;5.00;59.80
2539;DHT22;1280;49.760;9.664;2023-02-28T16:20:12;5.00;59.90
2539;DHT22;1280;49.760;9.664;2023-02-28T16:22:41;5.00;59.90
2539;DHT22;1280;49.760;9.664;2023-02-28T16:25:12;5.00;59.90
2539;DHT22;1280;49.760;9.664;2023-02-28T16:27:43;5.00;59.90
2539;DHT22;1280;49.760;9.664;2023-02-28T16:30:18;4.90;59.90
2539;DHT22;1280;49.760;9.664;2023-02-28T16:32:47;4.90;60.00
2539;DHT22;1280;49.760;9.664;2023-02-28T16:35:15;4.90;60.10
2539;DHT22;1280;49.760;9.664;2023-02-28T16:37:44;4.90;60.10
2539;DHT22;1280;49.760;9.664;2023-02-28T16:40:15;5.00;60.10
2539;DHT22;1280;49.760;9.664;2023-02-28T16:42:45;5.00;60.10
2539;DHT22;1280;49.760;9.664;2023-02-28T16:45:18;5.00;60.00
2539;DHT22;1280;49.760;9.664;2023-02-28T16:47:48;5.00;60.10
2539;DHT22;1280;49.760;9.664;2023-02-28T16:50:18;5.00;60.10
2539;DHT22;1280;49.760;9.664;2023-02-28T16:52:47;5.10;60.10
2539;DHT22;1280;49.760;9.664;2023-02-28T16:55:16;5.10;60.20
2539;DHT22;1280;49.760;9.664;2023-02-28T16:58:03;5.10;60.10
2539;DHT22;1280;49.760;9.664;2023-02-28T17:00:32;5.20;60.10
2539;DHT22;1280;49.760;9.664;2023-02-28T17:03:00;5.20;60.10
2539;DHT22;1280;49.760;9.664;2023-02-28T17:05:35;5.20;60.10